Time;durP1;ratioP1;P1;durP2;ratioP2;P2;SDS_P1;SDS_P2;PMS_P1;PMS_P2;Temp;Humidity;BMP_temperature;BMP_pressure;BME280_temperature;BME280_humidity;BME280_pressure;Samples;Min_cycle;Max_cycle;Signal;HPM_P1;HPM_P2
2023/12/16 00:00:22;;;;;;;14.50;2.95;;;;;;;;;;5036356;28;20076;-63
2023/12/16 00:02:48;;;;;;;12.35;3.50;;;;;;;;;;5036518;28;20067;-63
2023/12/16 00:05:14;;;;;;;12.50;2.88;;;;;;;;;;5019381;28;20044;-63
2023/12/16 00:07:40;;;;;;;10.60;2.88;;;;;;;;;;5053880;28;20044;-63
2023/12/16 00:10:07;;;;;;;10.27;2.97;;;;;;;;;;5054360;28;20059;-63
2023/12/16 00:12:33;;;;;;;10.40;2.60;;;;;;;;;;5052540;28;20411;-63
2023/12/16 00:14:59;;;;;;;15.80;3.17;;;;;;;;;;5050463;28;20041;-63
2023/12/16 00:17:26;;;;;;;16.35;3.05;;;;;;;;;;5035994;28;20041;-63
2023/12/16 00:19:52;;;;;;;12.45;3.33;;;;;;;;;;5035377;28;20405;-63
2023/12/16 00:22:18;;;;;;;11.10;3.08;;;;;;;;;;5054135;28;20057;-63
2023/12/16 00:24:44;;;;;;;15.45;3.08;;;;;;;;;;5053828;28;20045;-63
2023/12/16 00:27:10;;;;;;;13.05;2.90;;;;;;;;;;5030439;28;20056;-63
2023/12/16 00:29:37;;;;;;;14.63;4.47;;;;;;;;;;5035321;28;20134;-63
2023/12/16 00:32:03;;;;;;;12.88;3.17;;;;;;;;;;5029488;28;20573;-63
2023/12/16 00:34:29;;;;;;;17.83;3.83;;;;;;;;;;5053097;28;20044;-63
2023/12/16 00:36:56;;;;;;;13.90;3.97;;;;;;;;;;5034959;28;20056;-63
2023/12/16 00:39:22;;;;;;;11.43;3.30;;;;;;;;;;5036005;28;20049;-63
2023/12/16 00:41:48;;;;;;;15.05;3.80;;;;;;;;;;5034894;28;20051;-63
2023/12/16 00:44:14;;;;;;;12.02;3.38;;;;;;;;;;5052669;28;20045;-63
2023/12/16 00:46:40;;;;;;;12.52;3.17;;;;;;;;;;5052573;28;20041;-63
2023/12/16 00:49:06;;;;;;;15.95;3.30;;;;;;;;;;5052535;28;20080;-63
2023/12/16 00:51:33;;;;;;;10.27;3.08;;;;;;;;;;5053606;28;20091;-63
2023/12/16 00:53:59;;;;;;;19.60;4.63;;;;;;;;;;5034752;28;20168;-63
2023/12/16 00:56:25;;;;;;;14.30;3.33;;;;;;;;;;5053542;28;20036;-63
2023/12/16 00:58:54;;;;;;;15.30;3.25;;;;;;;;;;5052002;28;20036;-63
2023/12/16 01:01:20;;;;;;;11.68;5.07;;;;;;;;;;5052521;28;20083;-63
2023/12/16 01:03:46;;;;;;;11.68;2.90;;;;;;;;;;5019099;28;20378;-63
2023/12/16 01:06:12;;;;;;;14.20;3.65;;;;;;;;;;5052346;28;20036;-63
2023/12/16 01:08:38;;;;;;;18.15;2.90;;;;;;;;;;5034348;28;20037;-63
2023/12/16 01:11:05;;;;;;;12.68;2.65;;;;;;;;;;5052034;28;20045;-63
2023/12/16 01:13:31;;;;;;;16.08;3.10;;;;;;;;;;5034808;28;20052;-63
2023/12/16 01:15:57;;;;;;;14.02;3.08;;;;;;;;;;5052300;28;20056;-63
2023/12/16 01:18:24;;;;;;;15.60;2.80;;;;;;;;;;5052315;28;20083;-63
2023/12/16 01:20:51;;;;;;;13.50;2.30;;;;;;;;;;5052238;28;20542;-63
2023/12/16 01:23:17;;;;;;;12.43;2.80;;;;;;;;;;5030403;28;20183;-63
2023/12/16 01:25:43;;;;;;;10.85;3.00;;;;;;;;;;5051546;28;20481;-63
2023/12/16 01:28:09;;;;;;;13.98;2.60;;;;;;;;;;5034482;28;20049;-63
2023/12/16 01:30:35;;;;;;;14.65;3.30;;;;;;;;;;5033765;28;20103;-63
2023/12/16 01:33:02;;;;;;;9.20;2.15;;;;;;;;;;5034757;28;20045;-63
2023/12/16 01:35:28;;;;;;;11.38;2.33;;;;;;;;;;5034257;28;20511;-63
2023/12/16 01:37:54;;;;;;;8.32;2.20;;;;;;;;;;5031066;28;20127;-63
2023/12/16 01:40:20;;;;;;;13.48;2.65;;;;;;;;;;5047373;28;20041;-63
2023/12/16 01:42:47;;;;;;;11.75;2.38;;;;;;;;;;5027930;28;20385;-63
2023/12/16 01:45:15;;;;;;;10.23;2.38;;;;;;;;;;5033094;28;20052;-63
2023/12/16 01:47:42;;;;;;;11.77;2.53;;;;;;;;;;5048223;28;20128;-63
2023/12/16 01:50:10;;;;;;;8.10;1.98;;;;;;;;;;5049916;28;20049;-63
2023/12/16 01:52:37;;;;;;;14.15;2.50;;;;;;;;;;5037535;28;20112;-63
2023/12/16 01:55:03;;;;;;;10.50;2.53;;;;;;;;;;5052213;28;20067;-63
2023/12/16 01:57:29;;;;;;;13.95;2.10;;;;;;;;;;5049575;28;20041;-63
2023/12/16 01:59:55;;;;;;;10.95;2.58;;;;;;;;;;5051955;28;20472;-63
2023/12/16 02:02:22;;;;;;;10.20;2.15;;;;;;;;;;5031028;28;20400;-63
2023/12/16 02:04:49;;;;;;;13.55;2.72;;;;;;;;;;5033553;28;20044;-63
2023/12/16 02:07:15;;;;;;;14.07;2.38;;;;;;;;;;5051645;28;20040;-63
2023/12/16 02:09:41;;;;;;;16.15;2.75;;;;;;;;;;5032995;28;20099;-63
2023/12/16 02:12:07;;;;;;;10.27;2.53;;;;;;;;;;5029034;28;20050;-63
2023/12/16 02:14:33;;;;;;;8.20;2.00;;;;;;;;;;5028032;28;20045;-63
2023/12/16 02:16:59;;;;;;;14.20;2.55;;;;;;;;;;5033143;28;20492;-63
2023/12/16 02:19:26;;;;;;;16.48;2.45;;;;;;;;;;5026535;28;20111;-63
2023/12/16 02:21:53;;;;;;;18.65;2.92;;;;;;;;;;5032934;28;20053;-63
2023/12/16 02:24:19;;;;;;;13.32;2.95;;;;;;;;;;5033650;28;20036;-63
2023/12/16 02:26:46;;;;;;;17.88;3.58;;;;;;;;;;5031676;28;20394;-63
2023/12/16 02:29:12;;;;;;;9.30;2.20;;;;;;;;;;5051795;28;20064;-63
2023/12/16 02:31:38;;;;;;;26.48;2.80;;;;;;;;;;5032155;28;20049;-63
2023/12/16 02:34:05;;;;;;;12.50;2.50;;;;;;;;;;5032955;28;20427;-63
2023/12/16 02:36:31;;;;;;;18.38;2.72;;;;;;;;;;5051035;28;20064;-63
2023/12/16 02:38:58;;;;;;;14.00;2.72;;;;;;;;;;5033246;28;20049;-63
2023/12/16 02:41:24;;;;;;;14.77;3.50;;;;;;;;;;5032379;28;20441;-63
2023/12/16 02:43:50;;;;;;;15.38;2.60;;;;;;;;;;5032343;28;20080;-63
2023/12/16 02:46:16;;;;;;;16.55;2.80;;;;;;;;;;5050679;28;20124;-63
2023/12/16 02:48:42;;;;;;;15.65;2.40;;;;;;;;;;5032692;28;20052;-63
2023/12/16 02:51:16;;;;;;;17.88;3.17;;;;;;;;;;5033218;28;20052;-63
2023/12/16 02:53:42;;;;;;;15.98;2.80;;;;;;;;;;5031576;28;20048;-63
2023/12/16 02:56:09;;;;;;;17.95;3.85;;;;;;;;;;5050665;28;20033;-63
2023/12/16 02:58:35;;;;;;;26.45;3.25;;;;;;;;;;5025242;28;20041;-63
2023/12/16 03:01:01;;;;;;;15.88;3.67;;;;;;;;;;5026530;28;20072;-63
2023/12/16 03:03:27;;;;;;;21.13;3.08;;;;;;;;;;5032269;28;20036;-63
2023/12/16 03:05:53;;;;;;;19.38;3.08;;;;;;;;;;5033061;28;20567;-63
2023/12/16 03:08:19;;;;;;;20.50;3.63;;;;;;;;;;5050268;28;20500;-63
2023/12/16 03:10:45;;;;;;;11.73;3.00;;;;;;;;;;5033196;28;20353;-63
2023/12/16 03:13:12;;;;;;;16.42;3.50;;;;;;;;;;5015591;28;20041;-63
2023/12/16 03:15:38;;;;;;;15.73;3.17;;;;;;;;;;5032331;28;20125;-63
2023/12/16 03:18:04;;;;;;;21.63;3.80;;;;;;;;;;5033153;28;20183;-63
2023/12/16 03:20:30;;;;;;;27.17;3.90;;;;;;;;;;5029809;28;20097;-63
2023/12/16 03:22:56;;;;;;;18.08;2.80;;;;;;;;;;5027914;28;20107;-63
2023/12/16 03:25:23;;;;;;;18.95;3.88;;;;;;;;;;5030126;28;20041;-63
2023/12/16 03:27:49;;;;;;;16.67;3.03;;;;;;;;;;5030676;28;20048;-63
2023/12/16 03:30:15;;;;;;;19.20;2.80;;;;;;;;;;5028462;28;20049;-63
2023/12/16 03:32:41;;;;;;;13.23;3.30;;;;;;;;;;5029352;28;20497;-63
2023/12/16 03:35:08;;;;;;;17.48;3.85;;;;;;;;;;5029957;28;20500;-63
2023/12/16 03:37:34;;;;;;;25.90;4.35;;;;;;;;;;5012539;28;20100;-63
2023/12/16 03:40:00;;;;;;;18.40;3.13;;;;;;;;;;5030269;28;20056;-63
2023/12/16 03:42:26;;;;;;;17.33;2.83;;;;;;;;;;5027500;28;20087;-63
2023/12/16 03:44:53;;;;;;;18.13;3.58;;;;;;;;;;5006660;28;20448;-63
2023/12/16 03:47:19;;;;;;;26.33;3.72;;;;;;;;;;5025242;28;20045;-63
2023/12/16 03:49:45;;;;;;;16.00;3.15;;;;;;;;;;5032103;28;20051;-63
2023/12/16 03:52:12;;;;;;;16.35;3.72;;;;;;;;;;5031384;28;20104;-63
2023/12/16 03:54:38;;;;;;;21.05;3.67;;;;;;;;;;5033447;28;20111;-63
2023/12/16 03:57:05;;;;;;;21.27;3.80;;;;;;;;;;5031126;28;20137;-63
2023/12/16 03:59:31;;;;;;;22.67;4.95;;;;;;;;;;5033006;28;20046;-63
2023/12/16 04:01:57;;;;;;;16.27;2.80;;;;;;;;;;5033286;28;20049;-63
2023/12/16 04:04:24;;;;;;;21.52;3.83;;;;;;;;;;5028911;28;20051;-63
2023/12/16 04:06:50;;;;;;;19.00;4.70;;;;;;;;;;5031439;28;20377;-63
2023/12/16 04:09:16;;;;;;;23.02;3.53;;;;;;;;;;5018101;28;20382;-63
2023/12/16 04:11:46;;;;;;;21.38;4.65;;;;;;;;;;5026794;28;20050;-63
2023/12/16 04:14:12;;;;;;;20.92;3.65;;;;;;;;;;5023764;28;20049;-63
2023/12/16 04:16:38;;;;;;;24.17;3.78;;;;;;;;;;5031552;28;20059;-63
2023/12/16 04:19:05;;;;;;;20.75;3.80;;;;;;;;;;5020515;28;20057;-63
2023/12/16 04:21:32;;;;;;;23.83;4.45;;;;;;;;;;5044820;28;20049;-63
2023/12/16 04:23:59;;;;;;;30.88;4.70;;;;;;;;;;5053240;28;20376;-63
2023/12/16 04:26:25;;;;;;;31.15;4.93;;;;;;;;;;5052239;28;20059;-63
2023/12/16 04:28:51;;;;;;;20.90;4.05;;;;;;;;;;5031296;28;20450;-63
2023/12/16 04:31:19;;;;;;;28.90;4.40;;;;;;;;;;5027589;28;20496;-63
2023/12/16 04:33:46;;;;;;;28.33;5.28;;;;;;;;;;5034668;28;20049;-63
2023/12/16 04:36:16;;;;;;;23.30;3.90;;;;;;;;;;5050648;28;20044;-63
2023/12/16 04:38:42;;;;;;;24.55;4.28;;;;;;;;;;5030480;28;20061;-63
2023/12/16 04:41:12;;;;;;;22.52;4.18;;;;;;;;;;5023625;28;20438;-63
2023/12/16 04:43:38;;;;;;;25.95;5.43;;;;;;;;;;5033685;28;20440;-63
2023/12/16 04:46:04;;;;;;;30.48;4.57;;;;;;;;;;5048377;28;20527;-63
2023/12/16 04:48:30;;;;;;;33.05;4.80;;;;;;;;;;5034474;28;20048;-63
2023/12/16 04:50:57;;;;;;;31.55;5.18;;;;;;;;;;5031313;28;20061;-63
2023/12/16 04:53:23;;;;;;;40.58;6.90;;;;;;;;;;5029398;28;20037;-63
2023/12/16 04:55:49;;;;;;;28.98;4.80;;;;;;;;;;5033592;28;20075;-63
2023/12/16 04:58:16;;;;;;;27.02;5.57;;;;;;;;;;5033372;28;20192;-63
2023/12/16 05:00:42;;;;;;;19.92;4.85;;;;;;;;;;5030754;28;20068;-63
2023/12/16 05:03:08;;;;;;;27.88;4.60;;;;;;;;;;5027244;28;20049;-63
2023/12/16 05:05:34;;;;;;;23.27;4.55;;;;;;;;;;5044593;28;20036;-63
2023/12/16 05:08:00;;;;;;;34.50;5.32;;;;;;;;;;5045621;28;20144;-63
2023/12/16 05:10:26;;;;;;;32.47;6.50;;;;;;;;;;5050977;28;20132;-63
2023/12/16 05:12:52;;;;;;;36.83;6.00;;;;;;;;;;5051126;28;20036;-63
2023/12/16 05:15:18;;;;;;;39.47;6.47;;;;;;;;;;5040249;28;20147;-63
2023/12/16 05:17:45;;;;;;;25.70;5.10;;;;;;;;;;5049274;28;20167;-63
2023/12/16 05:20:11;;;;;;;24.95;6.63;;;;;;;;;;5033367;28;20049;-63
2023/12/16 05:22:37;;;;;;;44.67;6.25;;;;;;;;;;5030203;28;20047;-63
2023/12/16 05:25:04;;;;;;;27.50;7.05;;;;;;;;;;5010219;28;20045;-63
2023/12/16 05:27:30;;;;;;;25.67;5.95;;;;;;;;;;5040520;28;20037;-63
2023/12/16 05:30:01;;;;;;;33.28;8.55;;;;;;;;;;5050270;28;20145;-63
2023/12/16 05:32:27;;;;;;;30.70;6.57;;;;;;;;;;5043595;28;20047;-63
2023/12/16 05:34:54;;;;;;;29.88;6.75;;;;;;;;;;5051236;28;20040;-63
2023/12/16 05:37:20;;;;;;;38.35;6.65;;;;;;;;;;5033254;28;20045;-63
2023/12/16 05:39:46;;;;;;;33.97;6.55;;;;;;;;;;5035000;28;20055;-63
2023/12/16 05:42:12;;;;;;;34.60;7.22;;;;;;;;;;5031760;28;20456;-63
2023/12/16 05:44:39;;;;;;;28.90;7.28;;;;;;;;;;5037605;28;20397;-63
2023/12/16 05:47:07;;;;;;;33.28;6.72;;;;;;;;;;5035032;28;20045;-63
2023/12/16 05:49:33;;;;;;;27.83;7.40;;;;;;;;;;5030876;28;20057;-63
2023/12/16 05:52:00;;;;;;;28.42;6.78;;;;;;;;;;5030843;28;20484;-63
2023/12/16 05:54:26;;;;;;;31.63;7.95;;;;;;;;;;5033851;28;20083;-63
2023/12/16 05:56:52;;;;;;;39.05;8.63;;;;;;;;;;5031176;28;20085;-63
2023/12/16 05:59:18;;;;;;;42.22;10.52;;;;;;;;;;5029730;28;20439;-63
2023/12/16 06:01:44;;;;;;;48.42;8.55;;;;;;;;;;5040353;28;20037;-63
2023/12/16 06:04:10;;;;;;;40.70;8.48;;;;;;;;;;5029259;28;20046;-63
2023/12/16 06:06:36;;;;;;;38.50;8.40;;;;;;;;;;5036285;28;20049;-63
2023/12/16 06:09:03;;;;;;;31.55;7.70;;;;;;;;;;5014931;28;20052;-63
2023/12/16 06:11:29;;;;;;;41.80;8.82;;;;;;;;;;5048122;28;20063;-63
2023/12/16 06:13:55;;;;;;;39.63;8.63;;;;;;;;;;5026917;28;20136;-63
2023/12/16 06:16:21;;;;;;;53.25;10.02;;;;;;;;;;5031548;28;20158;-63
2023/12/16 06:18:48;;;;;;;35.92;8.43;;;;;;;;;;5028024;28;20049;-63
2023/12/16 06:21:14;;;;;;;40.88;9.60;;;;;;;;;;5011838;28;20049;-63
2023/12/16 06:23:41;;;;;;;57.08;10.77;;;;;;;;;;5013355;28;20397;-63
2023/12/16 06:26:07;;;;;;;44.20;10.10;;;;;;;;;;5040520;28;20111;-63
2023/12/16 06:28:33;;;;;;;47.55;9.65;;;;;;;;;;5029680;28;20378;-64
2023/12/16 06:30:59;;;;;;;49.13;10.15;;;;;;;;;;5042442;28;20436;-63
2023/12/16 06:33:25;;;;;;;45.85;9.93;;;;;;;;;;5025721;28;20068;-63
2023/12/16 06:35:52;;;;;;;50.42;10.23;;;;;;;;;;5024715;28;20045;-63
2023/12/16 06:38:18;;;;;;;47.60;10.38;;;;;;;;;;5024102;28;20075;-63
2023/12/16 06:40:44;;;;;;;47.92;10.85;;;;;;;;;;5026611;28;20075;-63
2023/12/16 06:43:10;;;;;;;48.40;10.70;;;;;;;;;;5030038;28;20049;-63
2023/12/16 06:45:38;;;;;;;49.28;10.25;;;;;;;;;;5030361;28;20045;-63
2023/12/16 06:48:04;;;;;;;48.60;11.35;;;;;;;;;;5031702;28;20037;-63
2023/12/16 06:50:31;;;;;;;42.72;11.32;;;;;;;;;;5030706;28;20056;-63
2023/12/16 06:52:57;;;;;;;40.38;9.23;;;;;;;;;;5028025;28;20045;-63
2023/12/16 06:55:23;;;;;;;46.97;10.52;;;;;;;;;;5031774;28;20099;-63
2023/12/16 06:57:49;;;;;;;54.47;10.93;;;;;;;;;;5029281;28;20050;-64
2023/12/16 07:00:15;;;;;;;48.67;9.75;;;;;;;;;;5029301;28;20124;-63
2023/12/16 07:02:42;;;;;;;62.85;11.27;;;;;;;;;;5029645;28;20096;-63
2023/12/16 07:05:11;;;;;;;62.40;10.90;;;;;;;;;;5030891;28;20037;-63
2023/12/16 07:07:38;;;;;;;55.13;10.98;;;;;;;;;;5029468;28;20211;-63
2023/12/16 07:10:07;;;;;;;53.17;11.27;;;;;;;;;;5029510;28;20045;-63
2023/12/16 07:12:34;;;;;;;55.92;11.10;;;;;;;;;;5029420;28;20385;-63
2023/12/16 07:15:00;;;;;;;52.78;10.93;;;;;;;;;;5030749;28;20050;-63
2023/12/16 07:17:26;;;;;;;51.80;10.05;;;;;;;;;;5029590;28;20046;-64
2023/12/16 07:19:52;;;;;;;52.47;12.07;;;;;;;;;;5022606;28;20061;-64
2023/12/16 07:22:18;;;;;;;59.63;10.55;;;;;;;;;;5029541;28;20376;-63
2023/12/16 07:24:48;;;;;;;66.13;11.70;;;;;;;;;;5033117;28;20508;-63
2023/12/16 07:27:14;;;;;;;65.70;11.55;;;;;;;;;;5033084;28;20442;-64
2023/12/16 07:29:40;;;;;;;76.97;12.90;;;;;;;;;;5030576;28;20077;-71
2023/12/16 07:32:06;;;;;;;64.85;12.65;;;;;;;;;;5026065;28;20057;-63
2023/12/16 07:34:33;;;;;;;60.22;12.35;;;;;;;;;;5031381;28;20403;-63
2023/12/16 07:36:59;;;;;;;69.25;13.32;;;;;;;;;;5033758;28;20132;-64
2023/12/16 07:39:25;;;;;;;70.00;13.30;;;;;;;;;;5034922;28;20498;-63
2023/12/16 07:41:51;;;;;;;71.95;14.52;;;;;;;;;;5031469;28;20069;-64
2023/12/16 07:44:17;;;;;;;71.35;12.77;;;;;;;;;;5033765;28;20041;-63
2023/12/16 07:46:44;;;;;;;68.82;12.05;;;;;;;;;;5032935;28;20102;-63
2023/12/16 07:49:10;;;;;;;60.92;13.25;;;;;;;;;;5015475;28;20043;-63
2023/12/16 07:51:36;;;;;;;65.07;12.98;;;;;;;;;;5034439;28;20209;-63
2023/12/16 07:54:02;;;;;;;62.65;13.07;;;;;;;;;;5035017;28;20038;-63
2023/12/16 07:56:29;;;;;;;82.68;13.27;;;;;;;;;;5032741;28;20048;-63
2023/12/16 07:58:58;;;;;;;56.10;12.55;;;;;;;;;;5033222;28;20041;-63
2023/12/16 08:01:24;;;;;;;61.08;12.30;;;;;;;;;;5032500;28;20465;-63
2023/12/16 08:03:51;;;;;;;71.00;12.77;;;;;;;;;;5031235;28;20080;-63
2023/12/16 08:06:17;;;;;;;60.05;13.50;;;;;;;;;;5034528;28;20088;-63
2023/12/16 08:08:47;;;;;;;62.50;13.82;;;;;;;;;;5032629;28;20442;-63
2023/12/16 08:11:16;;;;;;;68.03;14.52;;;;;;;;;;5025453;28;20132;-63
2023/12/16 08:13:42;;;;;;;57.25;13.13;;;;;;;;;;5033787;28;20045;-63
2023/12/16 08:16:10;;;;;;;51.20;9.80;;;;;;;;;;5031812;28;20456;-63
2023/12/16 08:18:36;;;;;;;50.22;10.90;;;;;;;;;;5030879;28;20226;-63
2023/12/16 08:21:02;;;;;;;66.28;12.88;;;;;;;;;;5032931;28;20064;-62
2023/12/16 08:23:28;;;;;;;57.50;11.50;;;;;;;;;;5034301;28;20049;-63
2023/12/16 08:25:55;;;;;;;56.83;10.10;;;;;;;;;;5032086;28;20045;-63
2023/12/16 08:28:23;;;;;;;61.58;12.90;;;;;;;;;;5014907;28;20780;-63
2023/12/16 08:30:50;;;;;;;55.58;11.65;;;;;;;;;;5031835;28;20121;-63
2023/12/16 08:33:16;;;;;;;58.88;11.00;;;;;;;;;;5033540;28;20132;-63
2023/12/16 08:35:44;;;;;;;58.95;11.73;;;;;;;;;;5031207;28;20037;-64
2023/12/16 08:38:10;;;;;;;57.13;9.63;;;;;;;;;;5031333;28;20091;-64
2023/12/16 08:40:36;;;;;;;66.38;11.07;;;;;;;;;;5032732;28;20068;-63
2023/12/16 08:43:02;;;;;;;68.28;12.07;;;;;;;;;;5031263;28;20041;-63
2023/12/16 08:45:28;;;;;;;59.40;10.07;;;;;;;;;;5026464;28;20508;-63
2023/12/16 08:47:54;;;;;;;68.97;10.32;;;;;;;;;;5032378;28;20042;-63
2023/12/16 08:50:23;;;;;;;58.40;10.88;;;;;;;;;;5032338;28;20049;-63
2023/12/16 08:52:49;;;;;;;84.78;13.45;;;;;;;;;;5031458;28;20042;-64
2023/12/16 08:55:15;;;;;;;67.70;12.80;;;;;;;;;;5030974;28;20381;-63
2023/12/16 08:57:42;;;;;;;63.75;10.52;;;;;;;;;;5031132;28;20037;-63
2023/12/16 09:00:11;;;;;;;57.78;10.40;;;;;;;;;;5029896;28;20063;-63
2023/12/16 09:02:38;;;;;;;75.32;12.00;;;;;;;;;;5041704;28;20049;-63
2023/12/16 09:05:04;;;;;;;72.97;11.07;;;;;;;;;;5031134;28;20489;-64
2023/12/16 09:07:30;;;;;;;68.05;13.32;;;;;;;;;;5031525;28;20397;-63
2023/12/16 09:09:56;;;;;;;62.88;11.00;;;;;;;;;;5031368;28;20049;-63
2023/12/16 09:12:23;;;;;;;73.82;11.20;;;;;;;;;;5032933;28;20139;-63
2023/12/16 09:14:50;;;;;;;72.22;12.77;;;;;;;;;;5032571;28;20045;-63
2023/12/16 09:17:16;;;;;;;68.72;11.82;;;;;;;;;;5032992;28;20139;-63
2023/12/16 09:19:42;;;;;;;64.07;11.45;;;;;;;;;;5032288;28;20069;-63
2023/12/16 09:22:09;;;;;;;79.38;13.52;;;;;;;;;;5049393;28;20045;-63
2023/12/16 09:24:35;;;;;;;70.80;12.25;;;;;;;;;;5041822;28;20059;-63
2023/12/16 09:27:01;;;;;;;66.40;11.85;;;;;;;;;;5056897;28;20529;-64
2023/12/16 09:29:27;;;;;;;91.65;12.70;;;;;;;;;;5034458;28;20408;-63
2023/12/16 09:31:53;;;;;;;59.08;10.65;;;;;;;;;;5035037;28;20101;-63
2023/12/16 09:34:20;;;;;;;70.60;13.18;;;;;;;;;;5032736;28;20044;-63
2023/12/16 09:36:46;;;;;;;63.75;11.77;;;;;;;;;;5034406;28;20045;-63
2023/12/16 09:39:12;;;;;;;78.95;11.90;;;;;;;;;;5034672;28;20037;-63
2023/12/16 09:41:44;;;;;;;63.40;12.05;;;;;;;;;;5051145;28;20507;-63
2023/12/16 09:44:13;;;;;;;69.93;15.80;;;;;;;;;;5052827;28;20131;-63
2023/12/16 09:46:39;;;;;;;84.30;15.23;;;;;;;;;;5051586;28;20106;-63
2023/12/16 09:49:06;;;;;;;67.35;14.02;;;;;;;;;;5050838;28;20049;-63
2023/12/16 09:51:32;;;;;;;69.50;14.85;;;;;;;;;;5051308;28;20488;-63
2023/12/16 09:53:59;;;;;;;82.20;13.95;;;;;;;;;;5051609;28;20102;-63
2023/12/16 09:56:27;;;;;;;74.20;13.93;;;;;;;;;;5051530;28;20378;-63
2023/12/16 09:58:54;;;;;;;68.70;13.98;;;;;;;;;;5031700;28;20041;-63
2023/12/16 10:01:20;;;;;;;70.00;14.30;;;;;;;;;;5050801;28;20056;-63
2023/12/16 10:03:47;;;;;;;68.95;13.98;;;;;;;;;;5050517;28;20044;-63
2023/12/16 10:06:14;;;;;;;58.72;14.63;;;;;;;;;;5052324;28;20068;-63
2023/12/16 10:08:41;;;;;;;77.05;15.18;;;;;;;;;;5051294;28;20055;-63
2023/12/16 10:11:08;;;;;;;81.78;18.23;;;;;;;;;;5051137;28;20045;-63
2023/12/16 10:13:53;;;;;;;62.83;16.40;;;;;;;;;;5050450;28;20435;-63
2023/12/16 10:16:24;;;;;;;75.75;16.65;;;;;;;;;;5032953;28;20056;-63
2023/12/16 10:18:54;;;;;;;63.30;18.20;;;;;;;;;;5033158;28;20123;-63
2023/12/16 10:21:21;;;;;;;78.45;17.55;;;;;;;;;;5051712;28;20085;-63
2023/12/16 10:23:48;;;;;;;56.08;16.67;;;;;;;;;;5047549;28;20036;-63
2023/12/16 10:26:14;;;;;;;51.90;15.55;;;;;;;;;;5033872;28;20090;-63
2023/12/16 10:28:40;;;;;;;64.00;15.57;;;;;;;;;;5034173;28;20053;-63
2023/12/16 10:31:06;;;;;;;64.10;17.20;;;;;;;;;;5033167;28;20140;-64
2023/12/16 10:33:33;;;;;;;47.90;15.27;;;;;;;;;;5032401;28;20033;-63
2023/12/16 10:35:59;;;;;;;60.45;16.80;;;;;;;;;;5049861;28;20079;-63
2023/12/16 10:38:26;;;;;;;63.97;16.63;;;;;;;;;;5032233;28;20045;-63
2023/12/16 10:40:53;;;;;;;60.53;16.98;;;;;;;;;;5033261;28;20523;-63
2023/12/16 10:43:19;;;;;;;66.65;18.23;;;;;;;;;;5051914;28;20082;-63
2023/12/16 10:45:46;;;;;;;58.47;17.63;;;;;;;;;;5049146;28;20045;-63
2023/12/16 10:48:15;;;;;;;54.83;17.17;;;;;;;;;;5051747;28;20409;-63
2023/12/16 10:50:46;;;;;;;66.30;18.42;;;;;;;;;;5050881;28;20127;-63
2023/12/16 10:53:15;;;;;;;63.28;18.65;;;;;;;;;;5049671;28;20052;-63
2023/12/16 10:55:44;;;;;;;55.50;17.42;;;;;;;;;;5049815;28;20451;-63
2023/12/16 10:58:37;;;;;;;57.80;17.13;;;;;;;;;;5053468;28;20455;-63
2023/12/16 11:01:06;;;;;;;54.92;18.50;;;;;;;;;;5053730;28;20107;-63
2023/12/16 11:03:42;;;;;;;59.78;17.63;;;;;;;;;;5058019;28;20033;-63
2023/12/16 11:06:13;;;;;;;64.45;18.35;;;;;;;;;;5037465;28;20554;-63
2023/12/16 11:08:39;;;;;;;65.70;18.05;;;;;;;;;;5038657;28;20052;-65
2023/12/16 11:11:06;;;;;;;68.97;18.63;;;;;;;;;;5058028;28;20144;-63
2023/12/16 11:13:33;;;;;;;59.75;19.38;;;;;;;;;;5036456;28;20036;-70
2023/12/16 11:16:01;;;;;;;56.08;17.88;;;;;;;;;;5020960;28;20052;-64
2023/12/16 11:18:29;;;;;;;64.05;17.38;;;;;;;;;;5055109;28;20063;-61
2023/12/16 11:21:01;;;;;;;61.53;18.13;;;;;;;;;;5051966;28;20053;-63
2023/12/16 11:23:29;;;;;;;57.67;16.80;;;;;;;;;;5036977;28;20399;-63
2023/12/16 11:25:55;;;;;;;61.83;17.05;;;;;;;;;;5033011;28;20397;-63
2023/12/16 11:28:22;;;;;;;54.85;17.33;;;;;;;;;;5053020;28;20124;-63
2023/12/16 11:30:48;;;;;;;58.70;16.92;;;;;;;;;;5038362;28;20048;-63
2023/12/16 11:33:15;;;;;;;64.07;17.35;;;;;;;;;;5037139;28;20045;-63
2023/12/16 11:35:45;;;;;;;62.38;16.92;;;;;;;;;;5038847;28;20104;-62
2023/12/16 11:38:31;;;;;;;69.47;16.67;;;;;;;;;;5032393;28;20047;-63
2023/12/16 11:40:58;;;;;;;48.15;15.15;;;;;;;;;;5035498;28;20045;-63
2023/12/16 11:43:44;;;;;;;53.78;14.90;;;;;;;;;;5030399;28;20496;-63
2023/12/16 11:46:30;;;;;;;58.65;15.73;;;;;;;;;;5032654;28;20076;-63
2023/12/16 11:48:57;;;;;;;54.60;17.67;;;;;;;;;;5034979;28;20115;-63
2023/12/16 11:51:24;;;;;;;53.72;15.73;;;;;;;;;;5036166;28;20139;-63
2023/12/16 11:53:51;;;;;;;42.88;16.40;;;;;;;;;;5037158;28;20232;-63
2023/12/16 11:56:19;;;;;;;51.03;14.98;;;;;;;;;;5052882;28;20044;-63
2023/12/16 11:58:46;;;;;;;47.28;13.80;;;;;;;;;;5034021;28;20084;-64
2023/12/16 12:01:12;;;;;;;48.78;14.07;;;;;;;;;;5053324;28;20647;-63
2023/12/16 12:03:38;;;;;;;46.65;13.80;;;;;;;;;;5050267;28;20041;-63
2023/12/16 12:06:04;;;;;;;45.53;13.45;;;;;;;;;;5054542;28;20041;-63
2023/12/16 12:08:31;;;;;;;42.78;13.52;;;;;;;;;;5036959;28;20048;-63
2023/12/16 12:10:58;;;;;;;39.75;13.10;;;;;;;;;;5032712;28;20094;-63
2023/12/16 12:13:24;;;;;;;42.22;12.27;;;;;;;;;;5031298;28;20044;-63
2023/12/16 12:15:50;;;;;;;47.38;14.35;;;;;;;;;;5031556;28;20081;-63
2023/12/16 12:18:17;;;;;;;35.45;12.48;;;;;;;;;;5032637;28;20499;-63
2023/12/16 12:20:44;;;;;;;45.80;13.38;;;;;;;;;;5026965;28;20049;-64
2023/12/16 12:23:12;;;;;;;40.38;13.88;;;;;;;;;;5011879;28;20267;-63
2023/12/16 12:25:38;;;;;;;35.47;12.85;;;;;;;;;;5027946;28;20041;-64
2023/12/16 12:28:11;;;;;;;49.50;14.05;;;;;;;;;;5030257;28;20038;-63
2023/12/16 12:30:37;;;;;;;32.22;11.90;;;;;;;;;;5029409;28;20085;-63
2023/12/16 12:33:03;;;;;;;33.97;12.23;;;;;;;;;;5031030;28;20052;-63
2023/12/16 12:35:29;;;;;;;32.67;11.93;;;;;;;;;;5031771;28;20517;-64
2023/12/16 12:37:56;;;;;;;36.25;14.45;;;;;;;;;;5029804;28;20128;-64
2023/12/16 12:40:23;;;;;;;35.22;12.63;;;;;;;;;;5032678;28;20063;-63
2023/12/16 12:42:55;;;;;;;31.30;11.50;;;;;;;;;;5031081;28;20052;-70
2023/12/16 12:45:27;;;;;;;27.75;11.40;;;;;;;;;;5030831;28;20452;-66
2023/12/16 12:47:54;;;;;;;34.80;11.88;;;;;;;;;;5026109;28;20041;-63
2023/12/16 12:50:25;;;;;;;32.22;10.80;;;;;;;;;;5032363;28;20132;-63
2023/12/16 12:52:52;;;;;;;27.42;10.60;;;;;;;;;;5032266;28;20049;-63
2023/12/16 12:55:18;;;;;;;26.23;11.75;;;;;;;;;;5032292;28;20045;-63
2023/12/16 12:57:45;;;;;;;25.50;11.82;;;;;;;;;;5032626;28;20045;-64
2023/12/16 13:00:11;;;;;;;28.67;10.50;;;;;;;;;;5030437;28;20087;-64
2023/12/16 13:02:37;;;;;;;29.55;10.85;;;;;;;;;;5032952;28;20080;-64
2023/12/16 13:05:04;;;;;;;33.65;12.30;;;;;;;;;;5031964;28;20464;-64
2023/12/16 13:07:30;;;;;;;26.17;9.57;;;;;;;;;;5030235;28;20527;-64
2023/12/16 13:09:57;;;;;;;29.33;9.90;;;;;;;;;;5033283;28;20076;-66
2023/12/16 13:12:23;;;;;;;26.92;9.57;;;;;;;;;;5010671;28;20077;-63
2023/12/16 13:14:50;;;;;;;24.73;9.50;;;;;;;;;;5029128;28;20048;-63
2023/12/16 13:17:16;;;;;;;30.00;11.45;;;;;;;;;;5026561;28;20034;-63
2023/12/16 13:19:42;;;;;;;27.58;10.70;;;;;;;;;;5033572;28;20052;-63
2023/12/16 13:22:09;;;;;;;24.00;9.55;;;;;;;;;;5035004;28;20488;-64
2023/12/16 13:24:35;;;;;;;31.75;10.23;;;;;;;;;;5035287;28;20049;-64
2023/12/16 13:27:01;;;;;;;26.95;9.95;;;;;;;;;;5034207;28;20060;-68
2023/12/16 13:29:27;;;;;;;24.55;9.55;;;;;;;;;;5016301;28;20488;-65
2023/12/16 13:31:55;;;;;;;19.25;9.32;;;;;;;;;;5031789;28;20057;-64
2023/12/16 13:34:22;;;;;;;28.08;10.05;;;;;;;;;;5033247;28;20045;-64
2023/12/16 13:36:48;;;;;;;32.80;9.90;;;;;;;;;;5052799;28;20146;-64
2023/12/16 13:39:15;;;;;;;20.20;8.80;;;;;;;;;;5051965;28;20049;-64
2023/12/16 13:41:41;;;;;;;21.25;9.68;;;;;;;;;;5052040;28;20064;-64
2023/12/16 13:44:07;;;;;;;23.05;8.32;;;;;;;;;;5033537;28;20044;-64
2023/12/16 13:46:34;;;;;;;20.05;7.90;;;;;;;;;;5052651;28;20037;-64
2023/12/16 13:49:00;;;;;;;25.00;8.90;;;;;;;;;;5032606;28;20045;-64
2023/12/16 13:51:27;;;;;;;21.42;7.88;;;;;;;;;;5032826;28;20132;-64
2023/12/16 13:53:53;;;;;;;35.17;9.10;;;;;;;;;;5049033;28;20043;-64
2023/12/16 13:56:19;;;;;;;19.08;8.35;;;;;;;;;;5033823;28;20342;-64
2023/12/16 13:58:45;;;;;;;17.73;7.65;;;;;;;;;;5034924;28;20151;-64
2023/12/16 14:01:12;;;;;;;22.30;8.43;;;;;;;;;;5034587;28;20044;-64
2023/12/16 14:03:38;;;;;;;20.52;8.20;;;;;;;;;;5033637;28;20045;-64
2023/12/16 14:06:04;;;;;;;25.67;8.45;;;;;;;;;;5050914;28;20047;-64
2023/12/16 14:08:31;;;;;;;27.85;8.55;;;;;;;;;;5051324;28;20086;-64
2023/12/16 14:10:57;;;;;;;18.83;8.95;;;;;;;;;;5034318;28;20460;-64
2023/12/16 14:13:23;;;;;;;22.48;8.02;;;;;;;;;;5034526;28;20345;-64
2023/12/16 14:15:53;;;;;;;17.15;7.82;;;;;;;;;;5049655;28;20037;-64
2023/12/16 14:18:19;;;;;;;20.85;8.10;;;;;;;;;;5034427;28;20052;-64
2023/12/16 14:20:45;;;;;;;24.65;8.43;;;;;;;;;;5051201;28;20052;-64